Time;durP1;ratioP1;P1;durP2;ratioP2;P2;SDS_P1;SDS_P2;PMS_P1;PMS_P2;Temp;Humidity;BMP_temperature;BMP_pressure;BME280_temperature;BME280_humidity;BME280_pressure;Samples;Min_cycle;Max_cycle;Signal;HPM_P1;HPM_P2
2023/09/21 00:01:48;;;;;;;4.83;2.77;;;;;;;19.35;100.00;156297.47;4831917;29;20452;-74
2023/09/21 00:04:13;;;;;;;5.43;2.17;;;;;;;19.43;100.00;156318.34;4830665;29;20109;-74
2023/09/21 00:06:38;;;;;;;4.90;2.17;;;;;;;19.37;100.00;156302.72;4830073;29;20113;-74
2023/09/21 00:09:08;;;;;;;8.20;2.40;;;;;;;19.43;100.00;156319.63;4825413;29;20391;-75
2023/09/21 00:11:33;;;;;;;7.15;2.40;;;;;;;19.40;100.00;156311.81;4815623;29;20050;-75
2023/09/21 00:13:59;;;;;;;4.17;2.47;;;;;;;19.37;100.00;156304.00;4814942;29;20030;-74
2023/09/21 00:16:27;;;;;;;5.43;2.30;;;;;;;19.28;100.00;156279.22;4831667;29;20116;-75
2023/09/21 00:18:53;;;;;;;4.22;2.50;;;;;;;19.36;100.00;156300.13;4823845;29;20571;-74
2023/09/21 00:21:19;;;;;;;3.88;2.35;;;;;;;19.27;100.00;156277.91;4821095;29;20053;-74
2023/09/21 00:23:47;;;;;;;5.53;2.30;;;;;;;19.28;100.00;156279.22;4828055;29;20057;-74
2023/09/21 00:26:14;;;;;;;6.50;2.63;;;;;;;19.27;100.00;156277.91;4811133;29;20420;-75
2023/09/21 00:28:40;;;;;;;8.20;2.70;;;;;;;19.17;100.00;156251.84;4816597;29;20501;-74
2023/09/21 00:31:06;;;;;;;10.85;2.63;;;;;;;19.20;100.00;156258.34;4823900;29;20034;-74
2023/09/21 00:33:33;;;;;;;7.03;2.60;;;;;;;19.17;100.00;156250.50;4830896;29;20038;-74
2023/09/21 00:35:59;;;;;;;4.93;2.78;;;;;;;19.14;100.00;156242.66;4832340;29;20424;-74
2023/09/21 00:38:26;;;;;;;5.00;2.83;;;;;;;19.10;100.00;156232.28;4829759;29;20101;-74
2023/09/21 00:41:00;;;;;;;5.80;2.72;;;;;;;19.11;100.00;156234.88;4810329;29;20030;-74
2023/09/21 00:43:27;;;;;;;6.55;2.53;;;;;;;19.11;100.00;156236.16;4816485;29;20022;-74
2023/09/21 00:45:54;;;;;;;7.25;2.88;;;;;;;19.13;100.00;156240.06;4829148;29;20034;-74
2023/09/21 00:48:25;;;;;;;6.75;2.88;;;;;;;19.12;100.00;156237.47;4815680;29;20137;-73
2023/09/21 00:50:53;;;;;;;4.47;2.35;;;;;;;19.04;100.00;156216.66;4829309;29;20577;-74
2023/09/21 00:53:20;;;;;;;5.65;2.22;;;;;;;18.99;100.00;156203.63;4815384;29;20038;-74
2023/09/21 00:55:51;;;;;;;5.47;2.78;;;;;;;18.98;100.00;156202.28;4831958;24;20127;-74
2023/09/21 00:58:19;;;;;;;9.05;2.83;;;;;;;19.00;100.00;156206.22;4817180;29;20050;-75
2023/09/21 01:00:46;;;;;;;12.65;2.50;;;;;;;19.05;100.00;156219.25;4817741;29;20552;-74
2023/09/21 01:03:12;;;;;;;6.10;2.80;;;;;;;19.02;100.00;156211.41;4804054;29;20042;-74
2023/09/21 01:21:10;;;;;;;8.55;2.60;;;;;;;18.98;100.00;156200.97;5576946;24;20504;-74
2023/09/21 01:31:21;;;;;;;6.18;2.67;;;;;;;18.95;100.00;156194.44;5723196;24;20033;-74
2023/09/21 01:49:17;;;;;;;7.65;2.65;;;;;;;18.97;100.00;156198.38;5110603;24;20110;-74
2023/09/21 02:02:03;;;;;;;9.88;2.40;;;;;;;18.95;100.00;156193.19;5422916;24;20057;-73
2023/09/21 02:04:29;;;;;;;6.17;2.53;;;;;;;18.93;100.00;156187.94;4835137;29;20041;-74
2023/09/21 02:06:54;;;;;;;11.50;2.73;;;;;;;18.89;100.00;156177.53;4836267;29;20038;-75
2023/09/21 02:09:20;;;;;;;5.13;2.50;;;;;;;18.87;100.00;156172.31;4838604;29;20067;-73
2023/09/21 02:11:47;;;;;;;4.60;2.38;;;;;;;18.90;100.00;156180.16;4818682;29;20068;-73
2023/09/21 02:19:20;;;;;;;6.18;2.85;;;;;;;18.89;100.00;156177.53;4852194;29;20421;-74
2023/09/21 02:21:46;;;;;;;6.70;2.97;;;;;;;18.97;100.00;156198.38;4831412;29;20086;-73
2023/09/21 02:24:12;;;;;;;7.90;2.15;;;;;;;18.96;100.00;156195.78;4850432;29;20554;-74
2023/09/21 02:26:42;;;;;;;3.00;2.33;;;;;;;18.97;100.00;156199.69;4836566;29;20041;-74
2023/09/21 02:29:09;;;;;;;7.55;2.75;;;;;;;19.02;100.00;156211.41;4837623;29;20056;-73
2023/09/21 02:31:37;;;;;;;6.03;2.70;;;;;;;19.12;100.00;156237.47;4846743;29;20045;-73
2023/09/21 02:34:02;;;;;;;10.07;3.00;;;;;;;19.08;100.00;156227.03;4849488;29;20037;-78
2023/09/21 02:36:28;;;;;;;12.43;2.77;;;;;;;19.08;100.00;156228.38;4855231;29;20090;-73
2023/09/21 02:38:53;;;;;;;8.03;2.37;;;;;;;19.08;100.00;156227.03;4835932;29;20085;-74
2023/09/21 02:41:19;;;;;;;16.70;3.43;;;;;;;18.97;100.00;156199.69;4851977;29;20072;-75
2023/09/21 02:43:45;;;;;;;4.47;2.30;;;;;;;18.96;100.00;156195.78;4828671;29;20033;-72
2023/09/21 02:46:13;;;;;;;6.95;2.63;;;;;;;18.85;100.00;156168.44;4851559;29;20114;-73
2023/09/21 02:48:40;;;;;;;5.57;2.42;;;;;;;18.76;100.00;156144.97;4853394;29;20032;-73
2023/09/21 02:51:06;;;;;;;5.90;2.45;;;;;;;18.71;100.00;156131.94;4837948;29;20056;-74
2023/09/21 02:53:32;;;;;;;6.77;2.40;;;;;;;18.68;100.00;156122.81;4853848;29;20022;-73
2023/09/21 02:55:59;;;;;;;5.20;2.70;;;;;;;18.63;100.00;156109.78;4853164;29;20038;-74
2023/09/21 02:58:26;;;;;;;4.72;2.45;;;;;;;18.61;100.00;156104.53;4837094;29;20394;-74
2023/09/21 03:00:53;;;;;;;3.88;2.40;;;;;;;18.62;100.00;156107.19;4837834;29;20029;-73
2023/09/21 03:03:23;;;;;;;8.30;2.45;;;;;;;18.61;100.00;156104.53;4854390;29;20478;-73
2023/09/21 03:39:09;;;;;;;8.10;2.60;;;;;;;18.52;100.00;156081.13;4852718;29;20073;-74
2023/09/21 03:41:35;;;;;;;5.38;2.60;;;;;;;18.49;100.00;152795.91;4853408;29;20167;-74
2023/09/21 03:44:03;;;;;;;5.10;2.42;;;;;;;18.51;100.00;155555.53;4850805;29;20064;-73
2023/09/21 03:46:29;;;;;;;7.20;2.88;;;;;;;18.56;100.00;156091.56;4850840;29;20041;-74
2023/09/21 03:59:17;;;;;;;7.78;2.95;;;;;;;18.41;100.00;132729.13;5740621;24;20036;-74
2023/09/21 04:01:43;;;;;;;5.38;2.70;;;;;;;18.30;100.00;129128.41;4821220;29;20183;-74
2023/09/21 04:04:17;;;;;;;7.67;3.33;;;;;;;18.25;100.00;114132.28;4816381;29;20124;-73
2023/09/21 04:06:43;;;;;;;8.18;2.90;;;;;;;18.21;100.00;105942.16;4836251;29;20033;-74
2023/09/21 04:09:09;;;;;;;5.50;2.60;;;;;;;18.17;100.00;100607.84;4836418;29;20026;-73
2023/09/21 04:11:34;;;;;;;6.53;2.40;;;;;;;18.10;100.00;86073.16;4835353;29;20286;-73
2023/09/21 04:14:00;;;;;;;5.37;2.60;;;;;;;18.11;100.00;80067.09;4824509;29;20116;-73
2023/09/21 04:16:26;;;;;;;6.57;3.07;;;;;;;18.09;100.00;74771.94;4833360;29;20041;-73
2023/09/21 04:18:52;;;;;;;6.78;2.67;;;;;;;18.13;100.00;73719.81;4817668;29;20494;-74
2023/09/21 04:21:17;;;;;;;5.43;2.90;;;;;;;18.14;100.00;74073.59;4822425;29;20041;-74
2023/09/21 04:23:43;;;;;;;7.70;3.27;;;;;;;18.13;100.00;80069.75;4823597;29;20037;-74
2023/09/21 04:26:10;;;;;;;11.25;3.15;;;;;;;18.18;100.00;97061.88;4832394;29;20026;-75
2023/09/21 04:28:36;;;;;;;7.03;2.72;;;;;;;18.13;100.00;97054.59;4832086;29;20546;-74
2023/09/21 04:31:01;;;;;;;7.93;3.33;;;;;;;18.11;100.00;99179.34;4835690;29;20033;-73
2023/09/21 04:33:27;;;;;;;7.23;3.37;;;;;;;18.09;100.00;96692.78;4833294;29;20424;-74
2023/09/21 04:35:52;;;;;;;3.73;2.83;;;;;;;18.12;100.00;92800.31;4837588;29;20033;-73
2023/09/21 04:38:17;;;;;;;9.00;3.43;;;;;;;18.03;100.00;86415.94;4824173;29;20025;-75
2023/09/21 04:40:44;;;;;;;4.47;2.97;;;;;;;17.95;100.00;89233.69;4840598;29;20067;-75
2023/09/21 04:43:09;;;;;;;4.30;2.80;;;;;;;17.88;100.00;94888.00;4823820;29;20386;-73
2023/09/21 04:45:35;;;;;;;8.00;3.37;;;;;;;17.83;100.00;97359.59;4835487;29;20029;-74
2023/09/21 04:48:03;;;;;;;6.57;3.00;;;;;;;17.78;100.00;96288.38;4799265;29;20072;-74
2023/09/21 04:50:29;;;;;;;4.13;2.83;;;;;;;17.69;100.00;97691.16;4823237;29;20034;-72
2023/09/21 04:52:54;;;;;;;6.57;3.37;;;;;;;17.59;100.00;89887.22;4819592;29;20495;-72
2023/09/21 04:55:19;;;;;;;5.47;3.20;;;;;;;17.50;100.00;83161.78;4839114;29;20038;-75
2023/09/21 04:57:45;;;;;;;4.30;3.10;;;;;;;17.43;100.00;74337.03;4834279;29;20080;-74
2023/09/21 05:00:13;;;;;;;7.85;3.63;;;;;;;17.36;100.00;66588.63;4812596;29;20065;-74
2023/09/21 05:02:39;;;;;;;5.68;2.80;;;;;;;17.35;100.00;62021.19;4836928;29;20160;-75
2023/09/21 05:05:06;;;;;;;6.03;3.57;;;;;;;17.33;100.00;56406.38;4836302;29;20575;-75
2023/09/21 05:07:35;;;;;;;5.45;4.13;;;;;;;17.30;100.00;54301.38;4835876;29;20049;-75
2023/09/21 05:10:01;;;;;;;5.78;3.42;;;;;;;17.20;100.00;47991.63;4814053;29;20867;-74
2023/09/21 05:12:27;;;;;;;7.23;3.37;;;;;;;17.17;100.00;42747.00;4814536;29;20034;-74
2023/09/21 05:14:53;;;;;;;4.80;3.17;;;;;;;17.15;100.00;39255.09;4836016;29;20101;-76
2023/09/21 05:17:18;;;;;;;5.93;3.70;;;;;;;17.09;100.00;30538.13;4838070;29;20029;-73
2023/09/21 05:19:44;;;;;;;5.43;3.20;;;;;;;17.08;100.00;26014.78;4837484;29;20125;-74
2023/09/21 05:22:10;;;;;;;5.80;3.37;;;;;;;17.11;100.00;23583.03;4832722;29;20030;-74
2023/09/21 05:24:36;;;;;;;4.35;2.95;;;;;;;17.09;100.00;21150.25;4806150;29;20121;-74
2023/09/21 05:27:03;;;;;;;3.83;3.30;;;;;;;17.08;100.00;17331.72;4816193;29;20170;-74
2023/09/21 05:29:28;;;;;;;5.72;3.28;;;;;;;17.06;100.00;16290.47;4837657;29;20086;-73
2023/09/21 05:31:54;;;;;;;5.70;3.40;;;;;;;16.98;100.00;14554.69;4830789;29;20380;-75
2023/09/21 05:34:20;;;;;;;7.43;4.05;;;;;;;16.96;100.00;11435.72;4806973;29;20038;-74
2023/09/21 05:36:47;;;;;;;5.23;3.77;;;;;;;16.88;100.00;9702.88;4835594;29;20029;-75
2023/09/21 05:39:16;;;;;;;4.75;3.28;;;;;;;16.92;100.00;7973.28;4800654;29;20154;-75
2023/09/21 05:41:46;;;;;;;5.57;3.95;;;;;;;16.89;100.00;7280.88;4831872;29;20038;-75
2023/09/21 05:44:11;;;;;;;6.85;3.50;;;;;;;16.85;100.00;5551.03;4817288;29;20030;-75
2023/09/21 05:46:38;;;;;;;6.10;3.43;;;;;;;16.81;100.00;4167.88;4837944;29;20510;-74
2023/09/21 05:49:03;;;;;;;4.13;3.50;;;;;;;16.83;100.00;2440.38;4831080;29;20513;-74
2023/09/21 05:51:30;;;;;;;5.10;3.80;;;;;;;16.83;100.00;713.44;4818141;29;20065;-74
2023/09/21 05:53:56;;;;;;;5.80;3.40;;;;;;;16.88;100.00;23.06;4831494;29;20054;-75
2023/09/21 05:56:21;;;;;;;6.97;3.93;;;;;;;16.85;100.00;-322.28;4829525;29;20450;-71
2023/09/21 05:58:47;;;;;;;8.07;4.20;;;;;;;16.82;100.00;-1357.84;4833499;29;20034;-73
2023/09/21 06:01:13;;;;;;;10.23;4.13;;;;;;;16.85;100.00;-2393.09;4839729;29;20653;-75
2023/09/21 06:03:39;;;;;;;5.00;3.17;;;;;;;16.70;100.00;-3082.84;4802627;29;20129;-74
2023/09/21 06:06:07;;;;;;;6.70;2.60;;;;;;;16.46;100.00;-2392.81;4835626;29;20121;-74
2023/09/21 06:08:33;;;;;;;3.72;2.40;;;;;;;16.27;100.00;1056.09;4833984;29;20030;-76
2023/09/21 06:11:02;;;;;;;3.67;1.70;;;;;;;15.92;100.00;9684.78;4839879;29;20044;-74
2023/09/21 06:13:28;;;;;;;2.67;1.90;;;;;;;15.76;100.00;13830.13;4836669;29;20038;-74
2023/09/21 06:15:54;;;;;;;4.17;1.50;;;;;;;15.68;100.00;17288.16;4824783;29;20036;-74
2023/09/21 06:18:19;;;;;;;4.10;1.83;;;;;;;15.60;100.00;16247.34;4836977;29;20316;-74
2023/09/21 06:20:45;;;;;;;1.77;1.50;;;;;;;15.51;100.00;16590.81;4839892;29;20030;-74
2023/09/21 06:23:10;;;;;;;3.00;1.60;;;;;;;15.46;100.00;14514.06;4831232;29;20032;-75
2023/09/21 06:25:36;;;;;;;2.90;1.57;;;;;;;15.47;100.00;14514.22;4829864;29;20026;-74
2023/09/21 06:28:03;;;;;;;5.70;1.95;;;;;;;15.44;100.00;13821.94;4837710;29;20022;-76
2023/09/21 06:30:28;;;;;;;6.55;2.10;;;;;;;15.39;100.00;13129.50;4843059;29;20034;-73
2023/09/21 06:32:55;;;;;;;4.43;2.17;;;;;;;15.38;100.00;10710.66;4837245;29;20029;-74
2023/09/21 06:35:21;;;;;;;;;;;;;;;15.45;100.00;8294.81;4838579;29;20033;-76
2023/09/21 06:37:47;;;;;;;4.80;2.13;;;;;;;15.44;100.00;6223.97;4826378;29;19923;-74
2023/09/21 06:40:13;;;;;;;5.70;2.00;;;;;;;15.49;100.00;5879.59;4836688;29;20129;-75
2023/09/21 06:42:38;;;;;;;6.57;2.73;;;;;;;15.51;100.00;4844.94;4839082;29;20120;-74
2023/09/21 06:45:06;;;;;;;4.97;2.57;;;;;;;15.55;100.00;2776.09;4821480;29;20037;-73
2023/09/21 06:47:32;;;;;;;4.40;2.20;;;;;;;15.51;100.00;4155.06;4839548;29;20124;-75
2023/09/21 06:49:58;;;;;;;9.32;2.60;;;;;;;15.54;100.00;3465.63;4825450;29;20099;-75
2023/09/21 06:52:24;;;;;;;4.73;2.40;;;;;;;15.57;100.00;2086.72;4837392;29;20030;-76
2023/09/21 06:54:49;;;;;;;5.90;2.27;;;;;;;15.56;100.00;1052.66;4840264;29;20030;-74
2023/09/21 06:57:22;;;;;;;7.30;3.00;;;;;;;15.62;100.00;1052.97;4835463;29;20495;-73
2023/09/21 06:59:47;;;;;;;4.18;2.47;;;;;;;15.61;100.00;1397.56;4823049;29;20049;-73
2023/09/21 07:02:12;;;;;;;10.40;2.90;;;;;;;15.61;100.00;708.25;4826609;29;20046;-74
2023/09/21 07:04:38;;;;;;;11.00;3.20;;;;;;;15.66;100.00;19.22;4823216;29;20029;-74
2023/09/21 07:07:07;;;;;;;6.10;3.10;;;;;;;15.69;100.00;708.59;4842956;29;20037;-75
2023/09/21 07:32:49;;;;;;;4.13;2.35;;;;;;;16.05;100.00;-5148.28;4843466;24;20115;-72
2023/09/21 07:35:15;;;;;;;8.37;2.73;;;;;;;16.09;100.00;-4804.09;4822036;29;20034;-73
2023/09/21 07:37:46;;;;;;;7.20;2.50;;;;;;;16.07;100.00;-3770.69;5153154;24;20096;-72
2023/09/21 07:40:14;;;;;;;4.60;2.47;;;;;;;16.16;100.00;-3081.81;4832721;29;20449;-74
2023/09/21 07:58:12;;;;;;;6.40;2.40;;;;;;;16.16;100.00;-1013.69;5628122;23;20050;-73
2023/09/21 08:00:37;;;;;;;;;;;;;;;16.07;100.00;-324.31;4819450;29;20034;-73
2023/09/21 08:03:03;;;;;;;5.10;2.05;;;;;;;16.04;100.00;-669.16;4818814;29;19916;-73
2023/09/21 08:05:30;;;;;;;3.90;2.30;;;;;;;16.03;100.00;-1013.91;4820795;29;20045;-73
2023/09/21 08:07:56;;;;;;;4.63;2.20;;;;;;;16.04;100.00;-2047.88;4799902;29;20038;-74
2023/09/21 08:10:21;;;;;;;3.77;2.13;;;;;;;16.02;100.00;-1703.25;4819928;29;20045;-73
2023/09/21 08:12:48;;;;;;;2.70;1.90;;;;;;;15.95;100.00;-1703.28;4822701;29;20415;-73
2023/09/21 08:28:09;;;;;;;6.53;2.20;;;;;;;16.11;100.00;-5492.97;5382629;24;20065;-74
2023/09/21 08:30:35;;;;;;;8.00;2.33;;;;;;;16.11;100.00;-6181.59;4820943;29;20034;-73
2023/09/21 08:33:01;;;;;;;5.93;2.13;;;;;;;16.17;100.00;-6526.31;4820911;29;20065;-73
2023/09/21 08:35:26;;;;;;;6.57;2.15;;;;;;;16.28;100.00;-7560.09;4838179;29;20086;-73
2023/09/21 08:37:53;;;;;;;5.97;2.30;;;;;;;16.32;100.00;-8248.91;4839455;29;20046;-73
2023/09/21 08:40:22;;;;;;;6.00;2.13;;;;;;;16.32;100.00;-6527.47;4835012;29;20042;-73
2023/09/21 08:42:52;;;;;;;2.78;2.05;;;;;;;16.30;100.00;-7215.97;4838370;29;20466;-75
2023/09/21 08:45:19;;;;;;;7.38;2.20;;;;;;;16.43;100.00;-6872.66;4836509;29;20042;-74
2023/09/21 08:47:46;;;;;;;3.15;1.88;;;;;;;16.31;100.00;-5838.56;4837926;29;20487;-74
2023/09/21 08:50:13;;;;;;;3.78;2.00;;;;;;;16.30;100.00;-4805.09;4838071;29;20033;-73
2023/09/21 08:52:41;;;;;;;2.65;1.98;;;;;;;16.28;100.00;-5493.94;4833404;29;20451;-74
2023/09/21 08:55:09;;;;;;;6.85;2.17;;;;;;;16.24;100.00;-4460.28;4851973;29;20441;-73
2023/09/21 08:57:36;;;;;;;3.58;1.73;;;;;;;16.20;100.00;-3771.06;4860998;29;20659;-73
2023/09/21 09:00:06;;;;;;;4.93;2.00;;;;;;;16.16;100.00;-4115.50;4858264;29;20029;-73
2023/09/21 09:02:33;;;;;;;6.57;1.85;;;;;;;16.16;100.00;-4804.44;4857903;29;20045;-73
2023/09/21 09:04:59;;;;;;;9.02;2.17;;;;;;;16.18;100.00;-5493.34;4841869;29;20029;-73
2023/09/21 09:07:25;;;;;;;;;;;;;;;16.12;100.00;-5837.34;4840300;29;20482;-74
2023/09/21 09:09:51;;;;;;;9.88;2.42;;;;;;;16.02;100.00;-5836.75;4839353;29;19968;-73
2023/09/21 09:12:23;;;;;;;3.30;1.97;;;;;;;15.99;100.00;-6180.78;4829757;29;20069;-74
2023/09/21 09:14:54;;;;;;;4.63;1.83;;;;;;;15.96;100.00;-6524.72;4856120;29;20029;-73
2023/09/21 09:17:19;;;;;;;4.68;2.03;;;;;;;15.94;100.00;-6868.72;4837386;29;20418;-74
2023/09/21 09:19:48;;;;;;;4.23;2.47;;;;;;;15.93;100.00;-6868.66;4839925;29;20025;-73
2023/09/21 09:22:15;;;;;;;7.80;2.20;;;;;;;15.87;100.00;-8244.34;4835644;29;20045;-74
2023/09/21 09:24:41;;;;;;;8.40;2.55;;;;;;;15.82;100.00;-8931.66;4857813;29;20072;-73
2023/09/21 09:27:06;;;;;;;17.83;2.43;;;;;;;15.83;100.00;-8931.78;4839386;29;20471;-75
2023/09/21 09:29:33;;;;;;;7.03;2.00;;;;;;;15.93;100.00;-9620.69;4839702;29;20033;-74
2023/09/21 09:31:59;;;;;;;;;;;;;;;15.88;100.00;-8932.28;4855559;29;20108;-75
2023/09/21 09:34:27;;;;;;;6.85;1.95;;;;;;;15.91;100.00;-9276.53;4855275;29;20110;-75
2023/09/21 09:36:55;;;;;;;4.63;1.80;;;;;;;15.95;100.00;-9964.81;4854692;29;20124;-75
2023/09/21 09:39:23;;;;;;;4.93;2.38;;;;;;;15.97;100.00;-10308.91;4837420;29;20037;-75
2023/09/21 09:41:50;;;;;;;6.93;3.05;;;;;;;15.95;100.00;-9277.09;4857105;29;20037;-75
2023/09/21 09:44:23;;;;;;;4.55;2.00;;;;;;;15.98;100.00;-9277.44;4854805;29;20025;-74
2023/09/21 09:46:58;;;;;;;11.68;2.05;;;;;;;16.00;100.00;-8245.63;4854222;29;20111;-75
2023/09/21 09:49:28;;;;;;;3.63;1.77;;;;;;;15.88;100.00;-7212.34;4848402;29;20536;-75
2023/09/21 09:51:56;;;;;;;4.47;1.75;;;;;;;15.82;100.00;-7899.88;4855773;29;20101;-75
2023/09/21 09:54:24;;;;;;;2.60;1.75;;;;;;;15.83;100.00;-8587.81;4834941;29;20117;-75
2023/09/21 09:56:52;;;;;;;5.72;2.13;;;;;;;15.84;100.00;-9275.72;4849955;29;20451;-75
2023/09/21 09:59:21;;;;;;;5.30;2.28;;;;;;;15.91;100.00;-10308.09;4833285;29;20117;-75
2023/09/21 10:01:49;;;;;;;5.82;1.77;;;;;;;15.91;100.00;-10995.66;4853629;29;20041;-75
2023/09/21 10:04:18;;;;;;;3.15;1.67;;;;;;;15.93;100.00;-11339.69;4853670;29;20030;-75
2023/09/21 10:06:45;;;;;;;3.15;2.20;;;;;;;15.89;100.00;-11682.78;4831286;29;20034;-75
2023/09/21 10:09:13;;;;;;;4.10;1.48;;;;;;;15.92;100.00;-12027.00;4839146;29;20098;-76
2023/09/21 10:11:42;;;;;;;3.83;2.03;;;;;;;15.93;100.00;-11339.78;4839759;29;20034;-75
2023/09/21 10:14:11;;;;;;;2.13;1.83;;;;;;;15.96;100.00;-11340.16;4857282;29;20209;-75
2023/09/21 10:16:48;;;;;;;4.32;1.90;;;;;;;15.96;100.00;-11683.97;4833456;29;20061;-75
2023/09/21 10:19:22;;;;;;;;;;;;;;;15.98;100.00;-12027.91;4837790;29;20459;-74
2023/09/21 10:21:49;;;;;;;3.95;1.80;;;;;;;16.03;100.00;-12028.72;4853990;29;20043;-75
2023/09/21 10:24:18;;;;;;;3.30;1.60;;;;;;;16.00;100.00;-10996.97;4824714;29;20781;-75
2023/09/21 10:26:53;;;;;;;3.58;2.10;;;;;;;16.05;100.00;-11341.53;4855973;29;20043;-75
2023/09/21 10:29:20;;;;;;;1.83;1.40;;;;;;;16.00;100.00;-10653.16;4846108;29;20056;-76
2023/09/21 10:31:54;;;;;;;5.25;1.85;;;;;;;15.97;100.00;-9965.06;4856121;29;20048;-75
2023/09/21 10:34:21;;;;;;;2.70;1.70;;;;;;;15.96;100.00;-10308.84;4853423;29;20446;-75
2023/09/21 10:36:52;;;;;;;2.15;1.45;;;;;;;16.00;100.00;-10997.06;4834982;29;20497;-75
2023/09/21 10:39:24;;;;;;;1.63;1.52;;;;;;;16.00;100.00;-11340.75;4837828;29;20144;-74
2023/09/21 10:41:52;;;;;;;2.60;1.52;;;;;;;16.12;100.00;-10998.81;4854167;29;20030;-75
2023/09/21 10:45:04;;;;;;;3.95;1.60;;;;;;;16.02;100.00;-9621.81;4841235;29;20039;-75
2023/09/21 10:47:48;;;;;;;3.50;1.75;;;;;;;15.89;100.00;-8932.41;4844165;29;20387;-75
2023/09/21 10:50:21;;;;;;;2.92;1.90;;;;;;;15.82;100.00;-8931.66;4854364;29;20053;-75
2023/09/21 10:52:51;;;;;;;9.27;2.08;;;;;;;15.85;100.00;-10651.06;4852156;29;20033;-75
2023/09/21 10:55:18;;;;;;;5.35;2.28;;;;;;;15.80;100.00;-10650.41;4836530;29;20367;-75
2023/09/21 10:57:45;;;;;;;2.05;1.73;;;;;;;15.86;100.00;-10994.94;4825814;29;20034;-76
2023/09/21 11:00:20;;;;;;;2.13;1.80;;;;;;;15.95;100.00;-9964.81;4856457;29;20042;-75
2023/09/21 11:02:47;;;;;;;2.22;1.90;;;;;;;16.05;100.00;-10310.06;4853304;29;20434;-76
2023/09/21 11:05:16;;;;;;;;;;;;;;;16.11;100.00;-10310.91;4839516;29;20040;-77
2023/09/21 11:20:41;;;;;;;2.13;1.92;;;;;;;16.25;100.00;-10656.72;5407811;24;20066;-75
2023/09/21 11:23:07;;;;;;;3.35;2.00;;;;;;;16.33;100.00;-10657.91;4822068;29;20403;-75
2023/09/21 11:25:33;;;;;;;3.88;2.33;;;;;;;16.35;100.00;-11002.19;4838407;29;20033;-76
2023/09/21 11:27:59;;;;;;;3.27;2.10;;;;;;;16.38;100.00;-11346.63;4818156;29;20041;-76
2023/09/21 11:30:25;;;;;;;2.58;1.90;;;;;;;16.42;100.00;-11347.16;4836491;29;20117;-76
2023/09/21 11:32:53;;;;;;;1.65;1.55;;;;;;;16.30;100.00;-9969.38;4825145;29;20064;-76
2023/09/21 11:35:23;;;;;;;3.75;2.10;;;;;;;16.38;100.00;-8938.03;4836737;29;20034;-75
2023/09/21 11:37:50;;;;;;;2.08;1.85;;;;;;;16.38;100.00;-9626.28;4840791;29;20057;-76
2023/09/21 11:40:24;;;;;;;2.97;1.77;;;;;;;16.38;100.00;-9970.47;4833036;29;20066;-76
2023/09/21 11:42:55;;;;;;;2.42;1.83;;;;;;;16.38;100.00;-8938.03;4835022;29;20042;-76
2023/09/21 11:45:20;;;;;;;2.17;1.98;;;;;;;16.44;100.00;-8938.66;4822160;29;20049;-76
2023/09/21 11:47:48;;;;;;;4.10;2.33;;;;;;;16.40;100.00;-8249.78;4817761;29;20033;-77
2023/09/21 11:50:19;;;;;;;4.97;1.77;;;;;;;16.49;100.00;-8939.28;4833930;29;20440;-75
2023/09/21 11:52:44;;;;;;;1.95;1.60;;;;;;;16.48;100.00;-7906.22;4831908;29;20034;-77
2023/09/21 11:55:11;;;;;;;2.00;1.80;;;;;;;16.54;100.00;-7562.41;4819799;29;20041;-77
2023/09/21 11:57:37;;;;;;;2.63;1.63;;;;;;;16.53;100.00;-7217.91;4833083;29;20488;-76
2023/09/21 12:00:13;;;;;;;;;;;;;;;16.58;100.00;-7562.81;4839481;29;20033;-76
2023/09/21 12:02:40;;;;;;;2.63;1.35;;;;;;;16.61;100.00;-7563.09;4833368;29;20450;-77
2023/09/21 12:05:10;;;;;;;5.13;1.70;;;;;;;16.55;100.00;-6529.13;4838709;29;20033;-77
2023/09/21 12:07:36;;;;;;;7.93;1.83;;;;;;;16.49;100.00;-6184.22;4840350;29;20037;-78
2023/09/21 12:10:02;;;;;;;6.33;1.80;;;;;;;16.44;100.00;-6872.78;4842233;29;20429;-76
2023/09/21 12:12:28;;;;;;;2.10;1.73;;;;;;;16.39;100.00;-7561.06;4837384;29;20030;-76
2023/09/21 12:14:53;;;;;;;2.73;1.53;;;;;;;16.45;100.00;-8250.28;4823805;29;20057;-77
2023/09/21 12:17:20;;;;;;;2.00;1.70;;;;;;;16.58;100.00;-8595.94;4833417;29;20044;-77
2023/09/21 12:19:45;;;;;;;;;;;;;;;16.79;100.00;-9631.41;4839667;29;20102;-77
2023/09/21 12:22:12;;;;;;;1.70;1.60;;;;;;;16.87;100.00;-9632.41;4840630;29;19924;-77
2023/09/21 12:24:37;;;;;;;2.58;1.60;;;;;;;16.93;100.00;-8599.75;4837237;29;20030;-77
2023/09/21 12:27:05;;;;;;;1.87;1.47;;;;;;;16.89;100.00;-6876.38;4840216;29;20044;-76
2023/09/21 12:29:33;;;;;;;1.60;1.50;;;;;;;16.96;100.00;-3083.31;4821277;29;20029;-76
2023/09/21 12:32:04;;;;;;;1.80;1.40;;;;;;;17.00;100.00;-2393.22;4829942;29;20101;-76
2023/09/21 12:34:31;;;;;;;1.63;1.42;;;;;;;17.07;100.00;-667.06;4824906;29;20033;-77
2023/09/21 12:36:57;;;;;;;1.70;1.40;;;;;;;17.11;100.00;23.78;4823912;29;20053;-77
2023/09/21 12:39:24;;;;;;;2.40;1.50;;;;;;;17.03;100.00;4170.06;4839545;29;20129;-77
2023/09/21 12:41:50;;;;;;;2.25;1.60;;;;;;;16.90;100.00;5897.44;4835426;29;20038;-76
2023/09/21 12:44:16;;;;;;;3.67;1.80;;;;;;;16.87;100.00;6242.88;4822295;29;20030;-76
2023/09/21 12:46:41;;;;;;;1.97;1.43;;;;;;;16.93;100.00;4860.47;4832802;29;20044;-77
2023/09/21 12:49:07;;;;;;;1.63;1.50;;;;;;;16.92;100.00;6935.38;4837811;29;20502;-77
2023/09/21 12:51:34;;;;;;;1.57;1.47;;;;;;;17.02;100.00;7282.75;4834577;29;20112;-77
2023/09/21 12:54:00;;;;;;;5.32;1.52;;;;;;;16.92;100.00;6589.41;4833991;29;20082;-76
2023/09/21 12:56:27;;;;;;;5.18;1.95;;;;;;;16.90;100.00;1059.09;4818672;29;20044;-76
2023/09/21 12:58:55;;;;;;;1.88;1.77;;;;;;;16.94;100.00;-2048.06;4834041;29;20491;-77
2023/09/21 13:01:22;;;;;;;2.25;1.75;;;;;;;16.92;100.00;-667.34;4832075;29;20502;-76
2023/09/21 13:03:48;;;;;;;3.75;2.10;;;;;;;16.73;100.00;22.56;4823708;29;20033;-76
2023/09/21 13:16:34;;;;;;;2.72;2.08;;;;;;;16.70;100.00;-4462.19;5446409;24;20574;-75
2023/09/21 13:19:00;;;;;;;4.10;2.33;;;;;;;16.63;100.00;-4806.59;4853323;29;20044;-76
2023/09/21 13:21:27;;;;;;;6.70;2.53;;;;;;;16.67;100.00;-5496.22;4838131;29;20033;-76
2023/09/21 13:23:53;;;;;;;4.10;2.53;;;;;;;16.63;100.00;-5495.94;4831638;29;20030;-76
2023/09/21 13:26:19;;;;;;;4.05;2.67;;;;;;;16.60;100.00;-6184.97;4836776;29;20437;-75
2023/09/21 13:28:44;;;;;;;3.33;2.50;;;;;;;16.53;100.00;-6184.50;4847201;29;20148;-77
2023/09/21 13:31:11;;;;;;;2.67;2.33;;;;;;;16.56;100.00;-6529.25;4840924;29;20022;-76
2023/09/21 13:33:38;;;;;;;9.82;2.65;;;;;;;16.53;100.00;-7562.38;4854118;29;20112;-77
2023/09/21 13:36:04;;;;;;;3.17;2.58;;;;;;;16.51;100.00;-6528.88;4837786;29;20088;-76
2023/09/21 13:38:30;;;;;;;3.83;2.50;;;;;;;16.53;100.00;-5839.94;4856397;29;20435;-77
2023/09/21 13:40:58;;;;;;;3.85;2.70;;;;;;;16.45;100.00;-5150.34;4841508;29;20033;-76
2023/09/21 13:43:25;;;;;;;6.95;3.10;;;;;;;16.35;100.00;-3771.53;4857584;29;20055;-77
2023/09/21 13:45:51;;;;;;;5.57;2.70;;;;;;;16.42;100.00;-5494.75;4839624;29;20042;-77
2023/09/21 13:48:16;;;;;;;3.90;2.58;;;;;;;16.54;100.00;-6184.56;4856529;29;20125;-77
2023/09/21 13:50:42;;;;;;;3.13;2.80;;;;;;;16.48;100.00;-5150.53;4834618;29;20124;-77
2023/09/21 13:53:10;;;;;;;3.20;2.90;;;;;;;16.42;100.00;-4461.03;4857080;29;20044;-76
2023/09/21 13:55:38;;;;;;;3.70;2.83;;;;;;;16.44;100.00;-6183.91;4855908;29;20416;-76
2023/09/21 13:58:03;;;;;;;4.25;3.45;;;;;;;16.34;100.00;-6527.56;4841866;29;20038;-77
2023/09/21 14:00:30;;;;;;;4.43;4.03;;;;;;;16.31;100.00;-7216.03;4850200;29;20062;-78
2023/09/21 14:02:56;;;;;;;6.07;4.00;;;;;;;16.27;100.00;-8248.41;4848979;29;20344;-77
2023/09/21 14:05:22;;;;;;;4.45;4.05;;;;;;;16.33;100.00;-8593.28;4832356;29;20037;-76
2023/09/21 14:07:49;;;;;;;8.15;3.80;;;;;;;16.31;100.00;-7560.38;4847540;29;20060;-77
2023/09/21 14:10:14;;;;;;;5.78;3.45;;;;;;;16.39;100.00;-7905.34;4847782;29;20130;-77
2023/09/21 14:12:40;;;;;;;4.43;3.70;;;;;;;16.37;100.00;-7560.88;4852532;29;20053;-73
2023/09/21 14:15:06;;;;;;;3.80;3.53;;;;;;;16.34;100.00;-7904.88;4845530;29;20042;-73
2023/09/21 14:17:32;;;;;;;3.63;3.33;;;;;;;16.40;100.00;-8938.25;4848764;29;20510;-73
2023/09/21 14:19:58;;;;;;;5.77;3.67;;;;;;;16.37;100.00;-8937.84;4852178;29;20044;-73